sensor_id;sensor_type;location;lat;lon;timestamp;temperature;humidity
29729;DHT22;20055;51.498;11.960;2024-02-23T00:01:51;12.30;99.90
29729;DHT22;20055;51.498;11.960;2024-02-23T00:04:17;12.30;99.90
29729;DHT22;20055;51.498;11.960;2024-02-23T00:06:46;12.40;99.90
29729;DHT22;20055;51.498;11.960;2024-02-23T00:09:13;12.30;99.90
29729;DHT22;20055;51.498;11.960;2024-02-23T00:11:40;12.30;99.90
29729;DHT22;20055;51.498;11.960;2024-02-23T00:14:11;12.30;99.90
29729;DHT22;20055;51.498;11.960;2024-02-23T00:16:41;12.30;99.90
29729;DHT22;20055;51.498;11.960;2024-02-23T00:19:10;12.30;99.90
29729;DHT22;20055;51.498;11.960;2024-02-23T00:21:37;12.20;99.90
29729;DHT22;20055;51.498;11.960;2024-02-23T00:24:05;12.10;99.90
29729;DHT22;20055;51.498;11.960;2024-02-23T00:26:31;12.20;99.90
29729;DHT22;20055;51.498;11.960;2024-02-23T00:28:57;12.10;99.90
29729;DHT22;20055;51.498;11.960;2024-02-23T00:31:23;12.00;99.90
29729;DHT22;20055;51.498;11.960;2024-02-23T00:33:49;12.00;99.90
29729;DHT22;20055;51.498;11.960;2024-02-23T00:36:16;11.90;99.90
29729;DHT22;20055;51.498;11.960;2024-02-23T00:38:42;11.80;99.90
29729;DHT22;20055;51.498;11.960;2024-02-23T00:41:09;11.80;99.90
29729;DHT22;20055;51.498;11.960;2024-02-23T00:43:41;11.80;99.90
29729;DHT22;20055;51.498;11.960;2024-02-23T00:46:08;11.70;99.90
29729;DHT22;20055;51.498;11.960;2024-02-23T00:48:34;11.70;99.90
29729;DHT22;20055;51.498;11.960;2024-02-23T00:51:04;11.70;99.90
29729;DHT22;20055;51.498;11.960;2024-02-23T00:53:31;11.60;99.90
29729;DHT22;20055;51.498;11.960;2024-02-23T00:55:58;11.60;99.90
29729;DHT22;20055;51.498;11.960;2024-02-23T00:58:24;11.50;99.90
29729;DHT22;20055;51.498;11.960;2024-02-23T01:00:50;11.40;99.90
29729;DHT22;20055;51.498;11.960;2024-02-23T01:03:17;11.40;99.90
29729;DHT22;20055;51.498;11.960;2024-02-23T01:05:43;11.40;99.90
29729;DHT22;20055;51.498;11.960;2024-02-23T01:08:09;11.40;99.90
29729;DHT22;20055;51.498;11.960;2024-02-23T01:10:35;11.40;99.90
29729;DHT22;20055;51.498;11.960;2024-02-23T01:13:01;11.30;99.90
29729;DHT22;20055;51.498;11.960;2024-02-23T01:15:28;11.10;99.90
29729;DHT22;20055;51.498;11.960;2024-02-23T01:18:00;11.10;99.90
29729;DHT22;20055;51.498;11.960;2024-02-23T01:20:26;11.10;99.90
29729;DHT22;20055;51.498;11.960;2024-02-23T01:22:52;11.00;99.90
29729;DHT22;20055;51.498;11.960;2024-02-23T01:25:19;10.90;99.90
29729;DHT22;20055;51.498;11.960;2024-02-23T01:27:45;10.90;99.90
29729;DHT22;20055;51.498;11.960;2024-02-23T01:30:11;10.90;99.90
29729;DHT22;20055;51.498;11.960;2024-02-23T01:32:37;10.90;99.90
29729;DHT22;20055;51.498;11.960;2024-02-23T01:35:05;10.80;99.90
29729;DHT22;20055;51.498;11.960;2024-02-23T01:37:32;10.70;99.90
29729;DHT22;20055;51.498;11.960;2024-02-23T01:39:59;10.70;99.90
29729;DHT22;20055;51.498;11.960;2024-02-23T01:42:25;10.60;99.90
29729;DHT22;20055;51.498;11.960;2024-02-23T01:44:52;10.50;99.90
29729;DHT22;20055;51.498;11.960;2024-02-23T01:47:18;10.50;99.90
29729;DHT22;20055;51.498;11.960;2024-02-23T01:49:46;10.40;99.90
29729;DHT22;20055;51.498;11.960;2024-02-23T01:52:14;10.40;99.90
29729;DHT22;20055;51.498;11.960;2024-02-23T01:54:41;10.30;99.90
29729;DHT22;20055;51.498;11.960;2024-02-23T01:57:08;10.30;99.90
29729;DHT22;20055;51.498;11.960;2024-02-23T01:59:36;10.20;99.90
29729;DHT22;20055;51.498;11.960;2024-02-23T02:02:04;10.20;99.90
29729;DHT22;20055;51.498;11.960;2024-02-23T02:04:30;10.10;99.90
29729;DHT22;20055;51.498;11.960;2024-02-23T02:07:00;10.10;99.90
29729;DHT22;20055;51.498;11.960;2024-02-23T02:09:27;10.10;99.90
29729;DHT22;20055;51.498;11.960;2024-02-23T02:11:53;10.10;99.90
29729;DHT22;20055;51.498;11.960;2024-02-23T02:14:20;10.10;99.90
29729;DHT22;20055;51.498;11.960;2024-02-23T02:16:46;10.00;99.90
29729;DHT22;20055;51.498;11.960;2024-02-23T02:19:13;10.10;99.90
29729;DHT22;20055;51.498;11.960;2024-02-23T02:21:41;10.10;99.90
29729;DHT22;20055;51.498;11.960;2024-02-23T02:24:07;10.10;99.90
29729;DHT22;20055;51.498;11.960;2024-02-23T02:26:35;10.20;99.90
29729;DHT22;20055;51.498;11.960;2024-02-23T02:29:01;10.10;99.90
29729;DHT22;20055;51.498;11.960;2024-02-23T02:31:27;10.10;99.90
29729;DHT22;20055;51.498;11.960;2024-02-23T02:33:54;10.10;99.90
29729;DHT22;20055;51.498;11.960;2024-02-23T02:36:20;10.20;99.90
29729;DHT22;20055;51.498;11.960;2024-02-23T02:38:46;10.20;99.90
29729;DHT22;20055;51.498;11.960;2024-02-23T02:41:13;10.00;99.90
29729;DHT22;20055;51.498;11.960;2024-02-23T02:43:39;10.00;99.90
29729;DHT22;20055;51.498;11.960;2024-02-23T02:46:05;10.00;99.90
29729;DHT22;20055;51.498;11.960;2024-02-23T02:48:32;10.00;99.90
29729;DHT22;20055;51.498;11.960;2024-02-23T02:50:58;9.90;99.90
29729;DHT22;20055;51.498;11.960;2024-02-23T02:53:24;9.80;99.90
29729;DHT22;20055;51.498;11.960;2024-02-23T02:55:50;9.70;99.90
29729;DHT22;20055;51.498;11.960;2024-02-23T02:58:16;9.70;99.90
29729;DHT22;20055;51.498;11.960;2024-02-23T03:00:42;9.60;99.90
29729;DHT22;20055;51.498;11.960;2024-02-23T03:03:09;9.50;99.90
29729;DHT22;20055;51.498;11.960;2024-02-23T03:05:35;9.50;99.90
29729;DHT22;20055;51.498;11.960;2024-02-23T03:08:01;9.40;99.90
29729;DHT22;20055;51.498;11.960;2024-02-23T03:10:27;9.30;99.90
29729;DHT22;20055;51.498;11.960;2024-02-23T03:12:53;9.20;99.90
29729;DHT22;20055;51.498;11.960;2024-02-23T03:15:20;9.10;99.90
29729;DHT22;20055;51.498;11.960;2024-02-23T03:17:46;9.00;99.90
29729;DHT22;20055;51.498;11.960;2024-02-23T03:20:12;8.90;99.90
29729;DHT22;20055;51.498;11.960;2024-02-23T03:22:38;8.90;99.90
29729;DHT22;20055;51.498;11.960;2024-02-23T03:25:05;8.80;99.90
29729;DHT22;20055;51.498;11.960;2024-02-23T03:27:35;8.70;99.90
29729;DHT22;20055;51.498;11.960;2024-02-23T03:30:05;8.70;99.90
29729;DHT22;20055;51.498;11.960;2024-02-23T03:32:34;8.60;99.90
29729;DHT22;20055;51.498;11.960;2024-02-23T03:35:03;8.60;99.90
29729;DHT22;20055;51.498;11.960;2024-02-23T03:37:30;8.50;99.90
29729;DHT22;20055;51.498;11.960;2024-02-23T03:39:56;8.50;99.90
29729;DHT22;20055;51.498;11.960;2024-02-23T03:42:22;8.40;99.90
29729;DHT22;20055;51.498;11.960;2024-02-23T03:44:48;8.40;99.90
29729;DHT22;20055;51.498;11.960;2024-02-23T03:47:15;8.40;99.90
29729;DHT22;20055;51.498;11.960;2024-02-23T03:49:41;8.30;99.90
29729;DHT22;20055;51.498;11.960;2024-02-23T03:52:08;8.30;99.90
29729;DHT22;20055;51.498;11.960;2024-02-23T03:54:34;8.30;99.90
29729;DHT22;20055;51.498;11.960;2024-02-23T03:57:00;8.30;99.90
29729;DHT22;20055;51.498;11.960;2024-02-23T03:59:28;8.20;99.90
29729;DHT22;20055;51.498;11.960;2024-02-23T04:01:55;8.20;99.90
29729;DHT22;20055;51.498;11.960;2024-02-23T04:04:21;8.10;99.90
29729;DHT22;20055;51.498;11.960;2024-02-23T04:06:47;8.20;99.90
29729;DHT22;20055;51.498;11.960;2024-02-23T04:09:13;8.10;99.90
29729;DHT22;20055;51.498;11.960;2024-02-23T04:11:40;8.20;99.90
29729;DHT22;20055;51.498;11.960;2024-02-23T04:14:06;8.10;99.90
29729;DHT22;20055;51.498;11.960;2024-02-23T04:16:32;8.00;99.90
29729;DHT22;20055;51.498;11.960;2024-02-23T04:18:58;8.10;99.90
29729;DHT22;20055;51.498;11.960;2024-02-23T04:21:25;8.10;99.90
29729;DHT22;20055;51.498;11.960;2024-02-23T04:23:52;8.00;99.90
29729;DHT22;20055;51.498;11.960;2024-02-23T04:26:18;8.00;99.90
29729;DHT22;20055;51.498;11.960;2024-02-23T04:28:45;8.00;99.90
29729;DHT22;20055;51.498;11.960;2024-02-23T04:31:11;8.00;99.90
29729;DHT22;20055;51.498;11.960;2024-02-23T04:33:38;8.10;99.90
29729;DHT22;20055;51.498;11.960;2024-02-23T04:36:04;8.10;99.90
29729;DHT22;20055;51.498;11.960;2024-02-23T04:38:31;8.10;99.90
29729;DHT22;20055;51.498;11.960;2024-02-23T04:40:57;8.10;99.90
29729;DHT22;20055;51.498;11.960;2024-02-23T04:43:25;8.10;99.90
29729;DHT22;20055;51.498;11.960;2024-02-23T04:45:51;8.00;99.90
29729;DHT22;20055;51.498;11.960;2024-02-23T04:48:17;8.00;99.90
29729;DHT22;20055;51.498;11.960;2024-02-23T04:50:44;8.00;99.90
29729;DHT22;20055;51.498;11.960;2024-02-23T04:53:10;7.90;99.90
29729;DHT22;20055;51.498;11.960;2024-02-23T04:55:36;8.00;99.90
29729;DHT22;20055;51.498;11.960;2024-02-23T04:58:02;7.90;99.90
29729;DHT22;20055;51.498;11.960;2024-02-23T05:00:29;7.90;99.90
29729;DHT22;20055;51.498;11.960;2024-02-23T05:03:00;7.90;99.90
29729;DHT22;20055;51.498;11.960;2024-02-23T05:05:30;7.90;99.90
29729;DHT22;20055;51.498;11.960;2024-02-23T05:07:56;8.00;99.90
29729;DHT22;20055;51.498;11.960;2024-02-23T05:10:22;8.00;99.90
29729;DHT22;20055;51.498;11.960;2024-02-23T05:12:49;8.10;99.90
29729;DHT22;20055;51.498;11.960;2024-02-23T05:15:15;8.10;99.90
29729;DHT22;20055;51.498;11.960;2024-02-23T05:17:41;8.00;99.90
29729;DHT22;20055;51.498;11.960;2024-02-23T05:20:08;8.00;99.90
29729;DHT22;20055;51.498;11.960;2024-02-23T05:22:37;7.90;99.90
29729;DHT22;20055;51.498;11.960;2024-02-23T05:25:04;7.80;99.90
29729;DHT22;20055;51.498;11.960;2024-02-23T05:27:33;7.70;99.90
29729;DHT22;20055;51.498;11.960;2024-02-23T05:29:59;7.70;99.90
29729;DHT22;20055;51.498;11.960;2024-02-23T05:32:26;7.60;99.90
29729;DHT22;20055;51.498;11.960;2024-02-23T05:34:52;7.50;99.90
29729;DHT22;20055;51.498;11.960;2024-02-23T05:37:20;7.40;99.90
29729;DHT22;20055;51.498;11.960;2024-02-23T05:39:46;7.30;99.90
29729;DHT22;20055;51.498;11.960;2024-02-23T05:42:12;7.30;99.90
29729;DHT22;20055;51.498;11.960;2024-02-23T05:44:39;7.30;99.90
29729;DHT22;20055;51.498;11.960;2024-02-23T05:47:05;7.30;99.90
29729;DHT22;20055;51.498;11.960;2024-02-23T05:49:32;7.20;99.90
29729;DHT22;20055;51.498;11.960;2024-02-23T05:51:58;7.20;99.90
29729;DHT22;20055;51.498;11.960;2024-02-23T05:54:24;7.10;99.90
29729;DHT22;20055;51.498;11.960;2024-02-23T05:56:50;7.10;99.90
29729;DHT22;20055;51.498;11.960;2024-02-23T05:59:16;7.20;99.90
29729;DHT22;20055;51.498;11.960;2024-02-23T06:01:43;7.10;99.90
29729;DHT22;20055;51.498;11.960;2024-02-23T06:04:09;7.10;99.90
29729;DHT22;20055;51.498;11.960;2024-02-23T06:06:35;7.10;99.90
29729;DHT22;20055;51.498;11.960;2024-02-23T06:09:02;7.10;99.90
29729;DHT22;20055;51.498;11.960;2024-02-23T06:11:29;7.10;99.90
29729;DHT22;20055;51.498;11.960;2024-02-23T06:13:55;7.10;99.90
29729;DHT22;20055;51.498;11.960;2024-02-23T06:16:21;7.10;99.90
29729;DHT22;20055;51.498;11.960;2024-02-23T06:18:47;7.10;99.90
29729;DHT22;20055;51.498;11.960;2024-02-23T06:21:17;7.10;99.90
29729;DHT22;20055;51.498;11.960;2024-02-23T06:23:44;7.20;99.90
29729;DHT22;20055;51.498;11.960;2024-02-23T06:26:11;7.10;99.90
29729;DHT22;20055;51.498;11.960;2024-02-23T06:28:37;7.40;99.90
29729;DHT22;20055;51.498;11.960;2024-02-23T06:31:05;8.40;99.90
29729;DHT22;20055;51.498;11.960;2024-02-23T06:33:31;8.50;99.90
29729;DHT22;20055;51.498;11.960;2024-02-23T06:35:58;8.00;99.90
29729;DHT22;20055;51.498;11.960;2024-02-23T06:38:24;7.70;99.90
29729;DHT22;20055;51.498;11.960;2024-02-23T06:40:51;7.50;99.90
29729;DHT22;20055;51.498;11.960;2024-02-23T06:43:18;7.40;99.90
29729;DHT22;20055;51.498;11.960;2024-02-23T06:45:44;7.30;99.90
29729;DHT22;20055;51.498;11.960;2024-02-23T06:48:10;7.20;99.90
29729;DHT22;20055;51.498;11.960;2024-02-23T06:50:36;7.20;99.90
29729;DHT22;20055;51.498;11.960;2024-02-23T06:53:03;7.20;99.90
29729;DHT22;20055;51.498;11.960;2024-02-23T06:55:29;7.20;99.90
29729;DHT22;20055;51.498;11.960;2024-02-23T06:57:55;7.20;99.90
29729;DHT22;20055;51.498;11.960;2024-02-23T07:00:21;7.20;99.90
29729;DHT22;20055;51.498;11.960;2024-02-23T07:02:48;7.20;99.90
29729;DHT22;20055;51.498;11.960;2024-02-23T07:05:14;7.10;99.90
29729;DHT22;20055;51.498;11.960;2024-02-23T07:07:40;7.10;99.90
29729;DHT22;20055;51.498;11.960;2024-02-23T07:10:07;7.20;99.90
29729;DHT22;20055;51.498;11.960;2024-02-23T07:12:35;7.20;99.90
29729;DHT22;20055;51.498;11.960;2024-02-23T07:15:02;7.20;99.90
29729;DHT22;20055;51.498;11.960;2024-02-23T07:17:29;7.20;99.90
29729;DHT22;20055;51.498;11.960;2024-02-23T07:19:55;7.30;99.90
29729;DHT22;20055;51.498;11.960;2024-02-23T07:22:29;7.30;99.90
29729;DHT22;20055;51.498;11.960;2024-02-23T07:24:55;7.40;99.90
29729;DHT22;20055;51.498;11.960;2024-02-23T07:27:22;7.30;99.90
29729;DHT22;20055;51.498;11.960;2024-02-23T07:29:48;7.40;99.90
29729;DHT22;20055;51.498;11.960;2024-02-23T07:32:15;7.50;99.90
29729;DHT22;20055;51.498;11.960;2024-02-23T07:34:41;7.50;99.90
29729;DHT22;20055;51.498;11.960;2024-02-23T07:37:07;7.70;99.90
29729;DHT22;20055;51.498;11.960;2024-02-23T07:39:34;7.70;99.90
29729;DHT22;20055;51.498;11.960;2024-02-23T07:42:00;7.80;99.90
29729;DHT22;20055;51.498;11.960;2024-02-23T07:44:28;7.90;99.90
29729;DHT22;20055;51.498;11.960;2024-02-23T07:46:55;7.90;99.90
29729;DHT22;20055;51.498;11.960;2024-02-23T07:49:21;8.00;99.90
29729;DHT22;20055;51.498;11.960;2024-02-23T07:51:51;8.00;99.90
29729;DHT22;20055;51.498;11.960;2024-02-23T07:54:18;8.10;99.90
29729;DHT22;20055;51.498;11.960;2024-02-23T07:56:44;8.00;99.90
29729;DHT22;20055;51.498;11.960;2024-02-23T07:59:10;8.10;99.90
29729;DHT22;20055;51.498;11.960;2024-02-23T08:01:37;8.00;99.90
29729;DHT22;20055;51.498;11.960;2024-02-23T08:04:03;8.10;99.90
29729;DHT22;20055;51.498;11.960;2024-02-23T08:06:29;7.80;99.90
29729;DHT22;20055;51.498;11.960;2024-02-23T08:08:56;7.80;99.90
29729;DHT22;20055;51.498;11.960;2024-02-23T08:11:22;8.00;99.90
29729;DHT22;20055;51.498;11.960;2024-02-23T08:13:48;8.30;99.90
29729;DHT22;20055;51.498;11.960;2024-02-23T08:16:18;8.40;99.90
29729;DHT22;20055;51.498;11.960;2024-02-23T08:18:44;8.60;99.90
29729;DHT22;20055;51.498;11.960;2024-02-23T08:21:10;8.70;99.90
29729;DHT22;20055;51.498;11.960;2024-02-23T08:23:37;8.90;99.90
29729;DHT22;20055;51.498;11.960;2024-02-23T08:26:03;8.90;99.90
29729;DHT22;20055;51.498;11.960;2024-02-23T08:28:30;9.10;99.90
29729;DHT22;20055;51.498;11.960;2024-02-23T08:30:56;9.20;99.90
29729;DHT22;20055;51.498;11.960;2024-02-23T08:33:23;9.10;99.90
29729;DHT22;20055;51.498;11.960;2024-02-23T08:35:50;9.20;99.90
29729;DHT22;20055;51.498;11.960;2024-02-23T08:38:16;9.10;99.90
29729;DHT22;20055;51.498;11.960;2024-02-23T08:40:44;9.20;99.90
29729;DHT22;20055;51.498;11.960;2024-02-23T08:43:11;9.30;99.90
29729;DHT22;20055;51.498;11.960;2024-02-23T08:45:37;9.40;99.90
29729;DHT22;20055;51.498;11.960;2024-02-23T08:48:04;9.40;99.90
29729;DHT22;20055;51.498;11.960;2024-02-23T08:50:30;9.50;99.90
29729;DHT22;20055;51.498;11.960;2024-02-23T08:52:56;9.70;99.90
29729;DHT22;20055;51.498;11.960;2024-02-23T08:55:22;9.80;99.90
29729;DHT22;20055;51.498;11.960;2024-02-23T08:57:50;9.90;99.90
29729;DHT22;20055;51.498;11.960;2024-02-23T09:00:17;10.00;99.90
29729;DHT22;20055;51.498;11.960;2024-02-23T09:02:43;10.00;99.90
29729;DHT22;20055;51.498;11.960;2024-02-23T09:05:09;10.20;99.90
29729;DHT22;20055;51.498;11.960;2024-02-23T09:07:36;10.00;99.90
29729;DHT22;20055;51.498;11.960;2024-02-23T09:10:02;10.00;99.90
29729;DHT22;20055;51.498;11.960;2024-02-23T09:12:30;9.90;99.90
29729;DHT22;20055;51.498;11.960;2024-02-23T09:14:57;10.00;99.90
29729;DHT22;20055;51.498;11.960;2024-02-23T09:17:23;9.90;99.90
29729;DHT22;20055;51.498;11.960;2024-02-23T09:19:49;9.90;99.90
29729;DHT22;20055;51.498;11.960;2024-02-23T09:22:15;9.90;99.90
29729;DHT22;20055;51.498;11.960;2024-02-23T09:24:42;9.70;99.90
29729;DHT22;20055;51.498;11.960;2024-02-23T09:27:08;9.80;99.90
29729;DHT22;20055;51.498;11.960;2024-02-23T09:29:35;9.90;99.90
29729;DHT22;20055;51.498;11.960;2024-02-23T09:32:01;9.90;99.90
29729;DHT22;20055;51.498;11.960;2024-02-23T09:34:27;9.80;99.90
29729;DHT22;20055;51.498;11.960;2024-02-23T09:36:53;9.70;99.90
29729;DHT22;20055;51.498;11.960;2024-02-23T09:39:19;9.80;99.90
29729;DHT22;20055;51.498;11.960;2024-02-23T09:41:50;9.80;99.90
29729;DHT22;20055;51.498;11.960;2024-02-23T09:44:18;9.90;99.90
29729;DHT22;20055;51.498;11.960;2024-02-23T09:46:46;9.90;99.90
29729;DHT22;20055;51.498;11.960;2024-02-23T09:49:14;9.80;99.90
29729;DHT22;20055;51.498;11.960;2024-02-23T09:51:42;9.70;99.90
29729;DHT22;20055;51.498;11.960;2024-02-23T09:54:10;9.50;99.90
29729;DHT22;20055;51.498;11.960;2024-02-23T09:56:36;9.60;99.90
29729;DHT22;20055;51.498;11.960;2024-02-23T09:59:03;9.70;99.90
29729;DHT22;20055;51.498;11.960;2024-02-23T10:01:31;9.60;99.90
29729;DHT22;20055;51.498;11.960;2024-02-23T10:04:01;9.70;99.90
29729;DHT22;20055;51.498;11.960;2024-02-23T10:06:29;9.70;99.90
29729;DHT22;20055;51.498;11.960;2024-02-23T10:08:56;9.60;99.90
29729;DHT22;20055;51.498;11.960;2024-02-23T10:11:23;9.50;99.90
29729;DHT22;20055;51.498;11.960;2024-02-23T10:13:50;9.40;99.90
29729;DHT22;20055;51.498;11.960;2024-02-23T10:16:19;9.40;99.90
29729;DHT22;20055;51.498;11.960;2024-02-23T10:18:48;9.50;99.90
29729;DHT22;20055;51.498;11.960;2024-02-23T10:21:15;9.60;99.90
29729;DHT22;20055;51.498;11.960;2024-02-23T10:23:44;9.70;99.90
29729;DHT22;20055;51.498;11.960;2024-02-23T10:26:10;9.80;99.90
29729;DHT22;20055;51.498;11.960;2024-02-23T10:28:37;9.80;99.90
29729;DHT22;20055;51.498;11.960;2024-02-23T10:31:05;9.70;99.90
29729;DHT22;20055;51.498;11.960;2024-02-23T10:33:31;9.40;99.90
29729;DHT22;20055;51.498;11.960;2024-02-23T10:35:58;9.50;99.90
29729;DHT22;20055;51.498;11.960;2024-02-23T10:38:29;9.80;99.90
29729;DHT22;20055;51.498;11.960;2024-02-23T10:40:58;9.80;99.90
29729;DHT22;20055;51.498;11.960;2024-02-23T10:43:36;9.90;99.90
29729;DHT22;20055;51.498;11.960;2024-02-23T10:46:05;9.80;99.90
29729;DHT22;20055;51.498;11.960;2024-02-23T10:48:34;9.70;99.90
29729;DHT22;20055;51.498;11.960;2024-02-23T10:51:02;9.70;99.90
29729;DHT22;20055;51.498;11.960;2024-02-23T10:53:31;9.80;99.90
29729;DHT22;20055;51.498;11.960;2024-02-23T10:55:59;9.70;99.90
29729;DHT22;20055;51.498;11.960;2024-02-23T10:58:26;9.90;99.90
29729;DHT22;20055;51.498;11.960;2024-02-23T11:00:58;10.20;99.90
29729;DHT22;20055;51.498;11.960;2024-02-23T11:03:31;10.30;99.90
29729;DHT22;20055;51.498;11.960;2024-02-23T11:06:02;10.40;99.90
29729;DHT22;20055;51.498;11.960;2024-02-23T11:08:34;10.20;99.90
29729;DHT22;20055;51.498;11.960;2024-02-23T11:11:10;10.30;99.90
29729;DHT22;20055;51.498;11.960;2024-02-23T11:13:40;10.10;99.90
29729;DHT22;20055;51.498;11.960;2024-02-23T11:16:07;10.20;99.90
29729;DHT22;20055;51.498;11.960;2024-02-23T11:18:39;10.20;99.90
29729;DHT22;20055;51.498;11.960;2024-02-23T11:21:08;10.20;99.90
29729;DHT22;20055;51.498;11.960;2024-02-23T11:23:47;10.30;99.90
29729;DHT22;20055;51.498;11.960;2024-02-23T11:26:14;10.40;99.90
29729;DHT22;20055;51.498;11.960;2024-02-23T11:28:50;10.30;99.90
29729;DHT22;20055;51.498;11.960;2024-02-23T11:31:24;10.20;99.90
29729;DHT22;20055;51.498;11.960;2024-02-23T11:33:50;10.20;99.90
29729;DHT22;20055;51.498;11.960;2024-02-23T11:36:28;10.20;99.90
29729;DHT22;20055;51.498;11.960;2024-02-23T11:38:56;10.20;99.90
29729;DHT22;20055;51.498;11.960;2024-02-23T11:41:23;10.10;99.90
29729;DHT22;20055;51.498;11.960;2024-02-23T11:43:54;10.20;99.90
29729;DHT22;20055;51.498;11.960;2024-02-23T11:46:26;10.30;99.90
29729;DHT22;20055;51.498;11.960;2024-02-23T11:48:53;10.40;99.90
29729;DHT22;20055;51.498;11.960;2024-02-23T11:51:22;10.40;99.90
29729;DHT22;20055;51.498;11.960;2024-02-23T11:53:49;10.60;99.90
29729;DHT22;20055;51.498;11.960;2024-02-23T11:56:16;10.60;99.90
29729;DHT22;20055;51.498;11.960;2024-02-23T11:58:43;10.70;99.90
29729;DHT22;20055;51.498;11.960;2024-02-23T12:01:09;10.70;99.90
29729;DHT22;20055;51.498;11.960;2024-02-23T12:03:36;10.80;99.90
29729;DHT22;20055;51.498;11.960;2024-02-23T12:06:04;11.00;99.90
29729;DHT22;20055;51.498;11.960;2024-02-23T12:08:31;11.20;99.90
29729;DHT22;20055;51.498;11.960;2024-02-23T12:11:05;11.10;99.90
29729;DHT22;20055;51.498;11.960;2024-02-23T12:13:31;11.10;99.90
29729;DHT22;20055;51.498;11.960;2024-02-23T12:15:58;11.10;99.90
29729;DHT22;20055;51.498;11.960;2024-02-23T12:18:24;11.10;99.90
29729;DHT22;20055;51.498;11.960;2024-02-23T12:21:05;11.20;99.90
29729;DHT22;20055;51.498;11.960;2024-02-23T12:23:41;11.10;99.90
29729;DHT22;20055;51.498;11.960;2024-02-23T12:26:08;11.00;99.90
29729;DHT22;20055;51.498;11.960;2024-02-23T12:28:35;11.00;99.90
29729;DHT22;20055;51.498;11.960;2024-02-23T12:31:04;10.90;99.90
29729;DHT22;20055;51.498;11.960;2024-02-23T12:33:35;10.70;99.90
29729;DHT22;20055;51.498;11.960;2024-02-23T12:36:03;10.70;99.90
29729;DHT22;20055;51.498;11.960;2024-02-23T12:38:30;11.00;99.90
29729;DHT22;20055;51.498;11.960;2024-02-23T12:40:56;10.70;99.90
29729;DHT22;20055;51.498;11.960;2024-02-23T12:43:23;10.80;99.90
29729;DHT22;20055;51.498;11.960;2024-02-23T12:45:57;10.90;99.90
29729;DHT22;20055;51.498;11.960;2024-02-23T12:48:26;10.70;99.90
29729;DHT22;20055;51.498;11.960;2024-02-23T12:50:52;10.60;99.90
29729;DHT22;20055;51.498;11.960;2024-02-23T12:58:38;10.70;99.90
29729;DHT22;20055;51.498;11.960;2024-02-23T13:01:05;10.70;99.90
29729;DHT22;20055;51.498;11.960;2024-02-23T13:03:37;10.70;99.90
29729;DHT22;20055;51.498;11.960;2024-02-23T13:06:04;10.70;99.90
29729;DHT22;20055;51.498;11.960;2024-02-23T13:08:31;10.30;99.90
29729;DHT22;20055;51.498;11.960;2024-02-23T13:10:57;10.30;99.90
29729;DHT22;20055;51.498;11.960;2024-02-23T13:13:23;10.30;99.90
29729;DHT22;20055;51.498;11.960;2024-02-23T13:15:51;10.10;99.90
29729;DHT22;20055;51.498;11.960;2024-02-23T13:18:18;10.10;99.90
29729;DHT22;20055;51.498;11.960;2024-02-23T13:20:45;10.00;99.90
29729;DHT22;20055;51.498;11.960;2024-02-23T13:23:12;10.00;99.90
29729;DHT22;20055;51.498;11.960;2024-02-23T13:25:39;10.10;99.90
29729;DHT22;20055;51.498;11.960;2024-02-23T13:28:07;10.10;99.90
29729;DHT22;20055;51.498;11.960;2024-02-23T13:30:34;10.10;99.90
29729;DHT22;20055;51.498;11.960;2024-02-23T13:33:01;10.00;99.90
29729;DHT22;20055;51.498;11.960;2024-02-23T13:35:28;10.00;99.90
29729;DHT22;20055;51.498;11.960;2024-02-23T13:37:55;10.00;99.90
29729;DHT22;20055;51.498;11.960;2024-02-23T13:40:21;10.00;99.90
29729;DHT22;20055;51.498;11.960;2024-02-23T13:42:47;10.10;99.90
29729;DHT22;20055;51.498;11.960;2024-02-23T13:45:16;10.20;99.90
29729;DHT22;20055;51.498;11.960;2024-02-23T13:47:55;10.10;99.90
29729;DHT22;20055;51.498;11.960;2024-02-23T13:50:22;10.20;99.90
29729;DHT22;20055;51.498;11.960;2024-02-23T13:52:48;10.30;99.90
29729;DHT22;20055;51.498;11.960;2024-02-23T13:55:14;10.40;99.90
29729;DHT22;20055;51.498;11.960;2024-02-23T13:57:40;10.60;99.90
29729;DHT22;20055;51.498;11.960;2024-02-23T14:00:07;10.70;99.90
29729;DHT22;20055;51.498;11.960;2024-02-23T14:02:39;10.70;99.90
29729;DHT22;20055;51.498;11.960;2024-02-23T14:05:08;10.70;99.90
29729;DHT22;20055;51.498;11.960;2024-02-23T14:07:35;10.70;99.90
29729;DHT22;20055;51.498;11.960;2024-02-23T14:10:02;10.80;99.90
29729;DHT22;20055;51.498;11.960;2024-02-23T14:12:29;10.70;99.90
29729;DHT22;20055;51.498;11.960;2024-02-23T14:14:56;10.80;99.90
29729;DHT22;20055;51.498;11.960;2024-02-23T14:17:22;10.80;99.90
29729;DHT22;20055;51.498;11.960;2024-02-23T14:19:48;10.80;99.90
29729;DHT22;20055;51.498;11.960;2024-02-23T14:22:16;10.90;99.90
29729;DHT22;20055;51.498;11.960;2024-02-23T14:24:43;10.90;99.90
29729;DHT22;20055;51.498;11.960;2024-02-23T14:27:10;10.90;99.90
29729;DHT22;20055;51.498;11.960;2024-02-23T14:29:36;10.90;99.90
29729;DHT22;20055;51.498;11.960;2024-02-23T14:32:02;10.90;99.90
29729;DHT22;20055;51.498;11.960;2024-02-23T14:34:30;10.80;99.90
29729;DHT22;20055;51.498;11.960;2024-02-23T14:36:59;10.80;99.90
29729;DHT22;20055;51.498;11.960;2024-02-23T14:39:27;10.60;99.90
29729;DHT22;20055;51.498;11.960;2024-02-23T14:41:53;10.40;99.90
29729;DHT22;20055;51.498;11.960;2024-02-23T14:44:19;10.40;99.90
29729;DHT22;20055;51.498;11.960;2024-02-23T14:46:46;10.30;99.90
29729;DHT22;20055;51.498;11.960;2024-02-23T14:49:12;10.20;99.90
29729;DHT22;20055;51.498;11.960;2024-02-23T14:51:38;10.20;99.90
29729;DHT22;20055;51.498;11.960;2024-02-23T14:54:07;10.00;99.90
29729;DHT22;20055;51.498;11.960;2024-02-23T14:56:33;10.00;99.90
29729;DHT22;20055;51.498;11.960;2024-02-23T14:58:59;10.10;99.90
29729;DHT22;20055;51.498;11.960;2024-02-23T15:01:27;10.00;99.90
29729;DHT22;20055;51.498;11.960;2024-02-23T15:03:53;10.00;99.90
29729;DHT22;20055;51.498;11.960;2024-02-23T15:06:20;9.90;99.90
29729;DHT22;20055;51.498;11.960;2024-02-23T15:08:48;9.70;99.90
29729;DHT22;20055;51.498;11.960;2024-02-23T15:11:15;9.60;99.90
29729;DHT22;20055;51.498;11.960;2024-02-23T15:13:41;9.70;99.90
29729;DHT22;20055;51.498;11.960;2024-02-23T15:16:07;9.60;99.90
29729;DHT22;20055;51.498;11.960;2024-02-23T15:18:33;9.60;99.90
29729;DHT22;20055;51.498;11.960;2024-02-23T15:21:01;9.50;99.90
29729;DHT22;20055;51.498;11.960;2024-02-23T15:23:27;9.50;99.90
29729;DHT22;20055;51.498;11.960;2024-02-23T15:25:54;9.40;99.90
29729;DHT22;20055;51.498;11.960;2024-02-23T15:28:20;9.40;99.90
29729;DHT22;20055;51.498;11.960;2024-02-23T15:30:50;9.40;99.90